GLO1378 SAEZ-SBRJ
Flight info
| Callsign | GLO1378 |
|---|---|
| Flight time | N/A |
| Altitude | 37000 |
| Route | DORVO UN857 AKNUB |
| Aircraft | B738/M-SDE2E3FGHIRWXY/LB1 |
Departure
| Time | 2026-04-30 13:34 |
|---|---|
| Airport | Ezeiza International Airport - Ministro Pistarini (SAEZ) |
Arrival
| Time | N/A |
|---|---|
| Airport | Santos Dumont Airport (SBRJ) |
| Time | Latitude | Longitude | Altitude | Speed | Heading |
|---|---|---|---|---|---|
| 2026-04-30 13:11 | -34.81642 | -58.54449 | 71 ft | 0 kts | 15° |
| 2026-04-30 13:26 | -34.81667 | -58.54457 | 71 ft | 1 kts | 15° |
| 2026-04-30 13:27 | -34.81690 | -58.54452 | 71 ft | 2 kts | 309° |
| 2026-04-30 13:28 | -34.81695 | -58.54434 | 71 ft | 0 kts | 281° |
| 2026-04-30 13:31 | -34.81694 | -58.54442 | 71 ft | 3 kts | 281° |
| 2026-04-30 13:31 | -34.81781 | -58.54644 | 71 ft | 13 kts | 253° |
| 2026-04-30 13:32 | -34.81762 | -58.54902 | 71 ft | 17 kts | 284° |
| 2026-04-30 13:32 | -34.81704 | -58.55215 | 71 ft | 16 kts | 281° |
| 2026-04-30 13:33 | -34.81846 | -58.55318 | 71 ft | 14 kts | 153° |
| 2026-04-30 13:33 | -34.81986 | -58.54943 | 71 ft | 65 kts | 102° |
| 2026-04-30 13:34 | -34.82135 | -58.54114 | 71 ft | 134 kts | 102° |
| 2026-04-30 13:34 | -34.83041 | -58.49303 | 1292 ft | 223 kts | 102° |
| 2026-04-30 13:35 | -34.83562 | -58.47448 | 1840 ft | 240 kts | 114° |
| 2026-04-30 13:35 | -34.85853 | -58.44413 | 2904 ft | 246 kts | 139° |
| 2026-04-30 13:36 | -34.88256 | -58.41429 | 4299 ft | 252 kts | 126° |
| 2026-04-30 13:36 | -34.89193 | -58.39579 | 4897 ft | 263 kts | 117° |
| 2026-04-30 13:36 | -34.90818 | -58.35443 | 6022 ft | 287 kts | 108° |
| 2026-04-30 13:37 | -34.91292 | -58.33080 | 6858 ft | 288 kts | 101° |
| 2026-04-30 13:37 | -34.91956 | -58.28212 | 8275 ft | 298 kts | 100° |
| 2026-04-30 13:38 | -34.92659 | -58.23185 | 9690 ft | 307 kts | 101° |
| 2026-04-30 13:38 | -34.93038 | -58.20623 | 10354 ft | 311 kts | 102° |
| 2026-04-30 13:38 | -34.93857 | -58.15168 | 11076 ft | 344 kts | 102° |
| 2026-04-30 13:39 | -34.94750 | -58.09182 | 11741 ft | 375 kts | 102° |
| 2026-04-30 13:39 | -34.95703 | -58.02745 | 12654 ft | 397 kts | 102° |
| 2026-04-30 13:40 | -34.96191 | -57.99417 | 13217 ft | 403 kts | 102° |
| 2026-04-30 13:40 | -34.96675 | -57.96057 | 13805 ft | 408 kts | 101° |
| 2026-04-30 13:40 | -34.96898 | -57.92537 | 14305 ft | 418 kts | 89° |
| 2026-04-30 13:40 | -34.96660 | -57.90227 | 14678 ft | 421 kts | 77° |
| 2026-04-30 13:41 | -34.95029 | -57.85897 | 15370 ft | 425 kts | 52° |
| 2026-04-30 13:41 | -34.93206 | -57.83090 | 15844 ft | 430 kts | 47° |
| 2026-04-30 13:41 | -34.91266 | -57.80285 | 15953 ft | 438 kts | 47° |
| 2026-04-30 13:41 | -34.89295 | -57.77473 | 16652 ft | 437 kts | 46° |
| 2026-04-30 13:42 | -34.87302 | -57.74623 | 17195 ft | 441 kts | 46° |
| 2026-04-30 13:42 | -34.85329 | -57.71787 | 17711 ft | 445 kts | 46° |
| 2026-04-30 13:42 | -34.81308 | -57.65951 | 18703 ft | 454 kts | 46° |
| 2026-04-30 13:43 | -34.79281 | -57.62991 | 19237 ft | 458 kts | 46° |
| 2026-04-30 13:43 | -34.77256 | -57.60033 | 19755 ft | 461 kts | 46° |
| 2026-04-30 13:43 | -34.75177 | -57.56996 | 20185 ft | 467 kts | 46° |
| 2026-04-30 13:43 | -34.73105 | -57.53970 | 20755 ft | 468 kts | 46° |
| 2026-04-30 13:44 | -34.71037 | -57.50952 | 21240 ft | 471 kts | 46° |
| 2026-04-30 13:44 | -34.68920 | -57.47868 | 21707 ft | 475 kts | 46° |
| 2026-04-30 13:44 | -34.66810 | -57.44801 | 22122 ft | 479 kts | 46° |
| 2026-04-30 13:44 | -34.64662 | -57.41684 | 22525 ft | 484 kts | 46° |
| 2026-04-30 13:45 | -34.60327 | -57.35400 | 23470 ft | 488 kts | 45° |
| 2026-04-30 13:45 | -34.58135 | -57.32225 | 23930 ft | 491 kts | 45° |
| 2026-04-30 13:45 | -34.55944 | -57.29055 | 24336 ft | 494 kts | 45° |
| 2026-04-30 13:46 | -34.53755 | -57.25892 | 24756 ft | 497 kts | 45° |
| 2026-04-30 13:46 | -34.51509 | -57.22649 | 25127 ft | 501 kts | 45° |
| 2026-04-30 13:46 | -34.49285 | -57.19442 | 25553 ft | 503 kts | 45° |
| 2026-04-30 13:46 | -34.47018 | -57.16174 | 25981 ft | 505 kts | 45° |
| 2026-04-30 13:47 | -34.44749 | -57.12905 | 26362 ft | 509 kts | 45° |
| 2026-04-30 13:47 | -34.42481 | -57.09640 | 26740 ft | 512 kts | 45° |
| 2026-04-30 13:47 | -34.40171 | -57.06319 | 27087 ft | 515 kts | 44° |
| 2026-04-30 13:47 | -34.37893 | -57.03045 | 27545 ft | 516 kts | 44° |
| 2026-04-30 13:48 | -34.35570 | -56.99713 | 27833 ft | 520 kts | 45° |
| 2026-04-30 13:48 | -34.33237 | -56.96368 | 28271 ft | 520 kts | 44° |
| 2026-04-30 13:48 | -34.30902 | -56.93021 | 28801 ft | 519 kts | 44° |
| 2026-04-30 13:48 | -34.28602 | -56.89724 | 29307 ft | 517 kts | 44° |
| 2026-04-30 13:49 | -34.26285 | -56.86406 | 29817 ft | 516 kts | 44° |
| 2026-04-30 13:49 | -34.23971 | -56.83098 | 30260 ft | 515 kts | 44° |
| 2026-04-30 13:49 | -34.21650 | -56.79786 | 30735 ft | 513 kts | 44° |
| 2026-04-30 13:49 | -34.19347 | -56.76505 | 31196 ft | 512 kts | 44° |
| 2026-04-30 13:50 | -34.17075 | -56.73271 | 31615 ft | 511 kts | 43° |
| 2026-04-30 13:50 | -34.12539 | -56.66816 | 32656 ft | 503 kts | 43° |
| 2026-04-30 13:50 | -34.10272 | -56.63598 | 33015 ft | 502 kts | 43° |
| 2026-04-30 13:51 | -34.08016 | -56.60406 | 33321 ft | 502 kts | 43° |
| 2026-04-30 13:51 | -34.05754 | -56.57209 | 33658 ft | 502 kts | 42° |
| 2026-04-30 13:51 | -34.03468 | -56.53980 | 34033 ft | 501 kts | 42° |
| 2026-04-30 13:51 | -34.01218 | -56.50801 | 34477 ft | 498 kts | 42° |
| 2026-04-30 13:52 | -33.98975 | -56.47633 | 34821 ft | 497 kts | 42° |
| 2026-04-30 13:52 | -33.96726 | -56.44461 | 35165 ft | 496 kts | 42° |
| 2026-04-30 13:52 | -33.94500 | -56.41324 | 35541 ft | 494 kts | 42° |
| 2026-04-30 13:52 | -33.92258 | -56.38164 | 35951 ft | 492 kts | 42° |
| 2026-04-30 13:53 | -33.90052 | -56.35058 | 36345 ft | 489 kts | 42° |
| 2026-04-30 13:53 | -33.87841 | -56.31952 | 36570 ft | 490 kts | 41° |
| 2026-04-30 13:53 | -33.85633 | -56.28861 | 36805 ft | 489 kts | 41° |
| 2026-04-30 13:53 | -33.84141 | -56.26779 | 36940 ft | 489 kts | 41° |
| 2026-04-30 13:54 | -33.81190 | -56.22674 | 37070 ft | 491 kts | 41° |
| 2026-04-30 13:54 | -33.78972 | -56.19591 | 37069 ft | 488 kts | 41° |
| 2026-04-30 13:54 | -33.74541 | -56.13409 | 37073 ft | 487 kts | 41° |
| 2026-04-30 13:55 | -33.70136 | -56.07248 | 37074 ft | 488 kts | 41° |
| 2026-04-30 13:55 | -33.65720 | -56.01086 | 37072 ft | 488 kts | 41° |
| 2026-04-30 13:56 | -33.61305 | -55.94929 | 37072 ft | 487 kts | 41° |
| 2026-04-30 13:56 | -33.56911 | -55.88814 | 37070 ft | 487 kts | 41° |
| 2026-04-30 13:57 | -33.52510 | -55.82702 | 37075 ft | 486 kts | 41° |
| 2026-04-30 13:57 | -33.48082 | -55.76568 | 37073 ft | 488 kts | 41° |
| 2026-04-30 13:58 | -33.41440 | -55.67375 | 37075 ft | 486 kts | 41° |
| 2026-04-30 13:59 | -33.37040 | -55.61301 | 37074 ft | 486 kts | 41° |
| 2026-04-30 13:59 | -33.32601 | -55.55187 | 37075 ft | 486 kts | 41° |
| 2026-04-30 14:00 | -33.28176 | -55.49099 | 37072 ft | 486 kts | 41° |
| 2026-04-30 14:00 | -33.21563 | -55.40022 | 37073 ft | 486 kts | 41° |
| 2026-04-30 14:01 | -33.17122 | -55.33937 | 37075 ft | 483 kts | 41° |
| 2026-04-30 14:01 | -33.12715 | -55.27908 | 37075 ft | 483 kts | 41° |
| 2026-04-30 14:02 | -33.08309 | -55.21896 | 37077 ft | 484 kts | 41° |
| 2026-04-30 14:02 | -33.03869 | -55.15847 | 37075 ft | 483 kts | 41° |
| 2026-04-30 14:03 | -32.99451 | -55.09833 | 37080 ft | 484 kts | 41° |
| 2026-04-30 14:03 | -32.95059 | -55.03866 | 37077 ft | 482 kts | 41° |
| 2026-04-30 14:04 | -32.90627 | -54.97854 | 37080 ft | 482 kts | 41° |
| 2026-04-30 14:04 | -32.86202 | -54.91865 | 37080 ft | 484 kts | 41° |
| 2026-04-30 14:05 | -32.81784 | -54.85892 | 37079 ft | 482 kts | 41° |
| 2026-04-30 14:05 | -32.77352 | -54.79908 | 37079 ft | 482 kts | 41° |
| 2026-04-30 14:06 | -32.70716 | -54.70972 | 37079 ft | 481 kts | 41° |
| 2026-04-30 14:07 | -32.64050 | -54.62020 | 37077 ft | 483 kts | 41° |
| 2026-04-30 14:08 | -32.57403 | -54.53111 | 37078 ft | 483 kts | 41° |
| 2026-04-30 14:08 | -32.50740 | -54.44202 | 37076 ft | 483 kts | 41° |
| 2026-04-30 14:09 | -32.46302 | -54.38282 | 37075 ft | 483 kts | 41° |
| 2026-04-30 14:10 | -32.39647 | -54.29416 | 37077 ft | 479 kts | 41° |
| 2026-04-30 14:10 | -32.35193 | -54.23496 | 37079 ft | 481 kts | 41° |
| 2026-04-30 14:11 | -32.30787 | -54.17608 | 37080 ft | 480 kts | 41° |
| 2026-04-30 14:11 | -32.26397 | -54.11653 | 37078 ft | 481 kts | 42° |
| 2026-04-30 14:12 | -32.22041 | -54.05732 | 37076 ft | 480 kts | 42° |
| 2026-04-30 14:12 | -32.17645 | -53.99773 | 37072 ft | 479 kts | 42° |
| 2026-04-30 14:13 | -32.13290 | -53.93889 | 37073 ft | 479 kts | 42° |
| 2026-04-30 14:13 | -32.08883 | -53.87951 | 37074 ft | 480 kts | 42° |
| 2026-04-30 14:14 | -32.04509 | -53.82067 | 37073 ft | 479 kts | 42° |
| 2026-04-30 14:14 | -32.00123 | -53.76179 | 37074 ft | 478 kts | 41° |
| 2026-04-30 14:15 | -31.95723 | -53.70294 | 37076 ft | 480 kts | 42° |
| 2026-04-30 14:15 | -31.91320 | -53.64411 | 37079 ft | 480 kts | 41° |
| 2026-04-30 14:16 | -31.86904 | -53.58518 | 37080 ft | 480 kts | 42° |
| 2026-04-30 14:16 | -31.82486 | -53.52632 | 37081 ft | 482 kts | 42° |
| 2026-04-30 14:17 | -31.78068 | -53.46751 | 37084 ft | 479 kts | 42° |
| 2026-04-30 14:17 | -31.73638 | -53.40865 | 37086 ft | 481 kts | 42° |
| 2026-04-30 14:18 | -31.69247 | -53.35039 | 37087 ft | 479 kts | 42° |
| 2026-04-30 14:18 | -31.62626 | -53.26275 | 37086 ft | 479 kts | 41° |
| 2026-04-30 14:19 | -31.55984 | -53.17504 | 37083 ft | 479 kts | 41° |
| 2026-04-30 14:20 | -31.51583 | -53.11704 | 37083 ft | 480 kts | 41° |
| 2026-04-30 14:20 | -31.44920 | -53.02941 | 37084 ft | 479 kts | 41° |
| 2026-04-30 14:21 | -31.40516 | -52.97152 | 37086 ft | 478 kts | 41° |
| 2026-04-30 14:22 | -31.33882 | -52.88462 | 37085 ft | 480 kts | 41° |
| 2026-04-30 14:22 | -31.27202 | -52.79726 | 37088 ft | 480 kts | 41° |
| 2026-04-30 14:23 | -31.18346 | -52.68160 | 37090 ft | 478 kts | 41° |
| 2026-04-30 14:24 | -31.11678 | -52.59488 | 37085 ft | 478 kts | 42° |
| 2026-04-30 14:25 | -31.02832 | -52.48013 | 37078 ft | 477 kts | 42° |
| 2026-04-30 14:26 | -30.96182 | -52.39408 | 37077 ft | 478 kts | 42° |
| 2026-04-30 14:27 | -30.89515 | -52.30802 | 37076 ft | 476 kts | 41° |
| 2026-04-30 14:27 | -30.85038 | -52.25119 | 37078 ft | 477 kts | 40° |
| 2026-04-30 14:28 | -30.78237 | -52.16666 | 37079 ft | 477 kts | 40° |
| 2026-04-30 14:28 | -30.73699 | -52.11037 | 37081 ft | 477 kts | 40° |
| 2026-04-30 14:29 | -30.65401 | -52.00737 | 37089 ft | 478 kts | 40° |
| 2026-04-30 14:31 | -30.53324 | -51.85759 | 37085 ft | 478 kts | 40° |
| 2026-04-30 14:31 | -30.46497 | -51.77319 | 37085 ft | 479 kts | 40° |
| 2026-04-30 14:32 | -30.39782 | -51.68836 | 37082 ft | 479 kts | 42° |
| 2026-04-30 14:33 | -30.35370 | -51.63040 | 37078 ft | 481 kts | 43° |
| 2026-04-30 14:33 | -30.28748 | -51.54342 | 37081 ft | 481 kts | 43° |
| 2026-04-30 14:34 | -30.24297 | -51.48531 | 37075 ft | 481 kts | 42° |
| 2026-04-30 14:34 | -30.19863 | -51.42767 | 37088 ft | 481 kts | 42° |
| 2026-04-30 14:35 | -30.13200 | -51.34131 | 37092 ft | 481 kts | 42° |
| 2026-04-30 14:36 | -30.08740 | -51.28361 | 37087 ft | 481 kts | 42° |
| 2026-04-30 14:36 | -30.04270 | -51.22593 | 37095 ft | 483 kts | 42° |
| 2026-04-30 14:37 | -29.99815 | -51.16850 | 37090 ft | 482 kts | 41° |
| 2026-04-30 14:37 | -29.95347 | -51.11111 | 37096 ft | 483 kts | 41° |
| 2026-04-30 14:38 | -29.90863 | -51.05366 | 37090 ft | 482 kts | 41° |
| 2026-04-30 14:38 | -29.86379 | -50.99630 | 37089 ft | 482 kts | 41° |
| 2026-04-30 14:39 | -29.81890 | -50.93901 | 37091 ft | 484 kts | 41° |
| 2026-04-30 14:39 | -29.77394 | -50.88168 | 37088 ft | 483 kts | 41° |
| 2026-04-30 14:40 | -29.70653 | -50.79581 | 37093 ft | 483 kts | 41° |
| 2026-04-30 14:40 | -29.66163 | -50.73876 | 37094 ft | 482 kts | 41° |
| 2026-04-30 14:41 | -29.61661 | -50.68162 | 37107 ft | 484 kts | 42° |
| 2026-04-30 14:41 | -29.57147 | -50.62441 | 37122 ft | 485 kts | 42° |
| 2026-04-30 14:42 | -29.52622 | -50.56714 | 37128 ft | 484 kts | 42° |
| 2026-04-30 14:42 | -29.48058 | -50.51054 | 37152 ft | 482 kts | 40° |
| 2026-04-30 14:43 | -29.43452 | -50.45495 | 37156 ft | 482 kts | 40° |
| 2026-04-30 14:43 | -29.38845 | -50.39962 | 37152 ft | 483 kts | 40° |
| 2026-04-30 14:44 | -29.34204 | -50.34380 | 37151 ft | 485 kts | 39° |
| 2026-04-30 14:44 | -29.29556 | -50.28780 | 37157 ft | 484 kts | 40° |
| 2026-04-30 14:45 | -29.24894 | -50.23167 | 37172 ft | 486 kts | 40° |
| 2026-04-30 14:45 | -29.20262 | -50.17587 | 37165 ft | 483 kts | 39° |
| 2026-04-30 14:46 | -29.15628 | -50.12016 | 37159 ft | 484 kts | 40° |
| 2026-04-30 14:46 | -29.11759 | -50.07373 | 37164 ft | 486 kts | 40° |
| 2026-04-30 14:47 | -29.06336 | -50.00872 | 37152 ft | 486 kts | 39° |
| 2026-04-30 14:47 | -29.01637 | -49.95248 | 37163 ft | 490 kts | 39° |
| 2026-04-30 14:48 | -28.96946 | -49.89643 | 37154 ft | 489 kts | 39° |
| 2026-04-30 14:48 | -28.92247 | -49.84034 | 37147 ft | 491 kts | 39° |
| 2026-04-30 14:49 | -28.87567 | -49.78398 | 37126 ft | 490 kts | 40° |
| 2026-04-30 14:49 | -28.82995 | -49.72654 | 37102 ft | 492 kts | 41° |
| 2026-04-30 14:50 | -28.76121 | -49.63913 | 37093 ft | 492 kts | 41° |
| 2026-04-30 14:51 | -28.69252 | -49.55242 | 37100 ft | 496 kts | 41° |
| 2026-04-30 14:52 | -28.62325 | -49.46546 | 37101 ft | 492 kts | 41° |
| 2026-04-30 14:52 | -28.55399 | -49.37886 | 37104 ft | 494 kts | 41° |
| 2026-04-30 14:53 | -28.48479 | -49.29245 | 37108 ft | 493 kts | 41° |
| 2026-04-30 14:54 | -28.39181 | -49.17680 | 37107 ft | 498 kts | 41° |
| 2026-04-30 14:55 | -28.32202 | -49.09010 | 37090 ft | 497 kts | 41° |
| 2026-04-30 14:56 | -28.22889 | -48.97433 | 37079 ft | 498 kts | 41° |
| 2026-04-30 14:57 | -28.15903 | -48.88661 | 37100 ft | 499 kts | 41° |
| 2026-04-30 14:58 | -28.06608 | -48.77017 | 37102 ft | 503 kts | 41° |
| 2026-04-30 14:58 | -27.99587 | -48.68248 | 37110 ft | 501 kts | 41° |
| 2026-04-30 15:00 | -27.87894 | -48.53696 | 37090 ft | 503 kts | 41° |
| 2026-04-30 15:01 | -27.78491 | -48.42034 | 37081 ft | 502 kts | 41° |
| 2026-04-30 15:01 | -27.71432 | -48.33297 | 37086 ft | 505 kts | 41° |
| 2026-04-30 15:02 | -27.66723 | -48.27480 | 37080 ft | 501 kts | 41° |
| 2026-04-30 15:03 | -27.54912 | -48.12942 | 37085 ft | 504 kts | 41° |
| 2026-04-30 15:04 | -27.43117 | -47.98455 | 37089 ft | 505 kts | 41° |
| 2026-04-30 15:06 | -27.31222 | -47.83947 | 37090 ft | 504 kts | 40° |
| 2026-04-30 15:07 | -27.21716 | -47.72463 | 37088 ft | 504 kts | 40° |
| 2026-04-30 15:08 | -27.12177 | -47.60961 | 37087 ft | 504 kts | 40° |
| 2026-04-30 15:09 | -27.00207 | -47.46565 | 37079 ft | 506 kts | 40° |
| 2026-04-30 15:10 | -26.90668 | -47.35117 | 37076 ft | 501 kts | 40° |
| 2026-04-30 15:11 | -26.76445 | -47.18117 | 37073 ft | 500 kts | 40° |
| 2026-04-30 15:13 | -26.64501 | -47.03925 | 37082 ft | 500 kts | 40° |
| 2026-04-30 15:14 | -26.47847 | -46.84297 | 37078 ft | 496 kts | 39° |
| 2026-04-30 15:17 | -26.26444 | -46.59261 | 37072 ft | 494 kts | 40° |
| 2026-04-30 15:19 | -26.07521 | -46.37233 | 37069 ft | 493 kts | 40° |